Time;durP1;ratioP1;P1;durP2;ratioP2;P2;SDS_P1;SDS_P2;PMS_P1;PMS_P2;Temp;Humidity;BMP_temperature;BMP_pressure;BME280_temperature;BME280_humidity;BME280_pressure;Samples;Min_cycle;Max_cycle;Signal;HPM_P1;HPM_P2
2023/07/17 00:01:37;;;;;;;0.30;0.00;;;16.30;99.90;;;;;;5000111;28;20067;-68
2023/07/17 00:04:04;;;;;;;0.20;0.03;;;16.30;99.90;;;;;;5002525;28;20393;-68
2023/07/17 00:06:30;;;;;;;0.10;0.10;;;16.30;99.90;;;;;;5005882;28;20434;-68
2023/07/17 00:08:55;;;;;;;0.22;0.10;;;16.30;99.90;;;;;;4996394;28;20675;-68
2023/07/17 00:11:21;;;;;;;0.10;0.00;;;16.30;99.90;;;;;;5000438;28;20077;-68
2023/07/17 00:13:47;;;;;;;0.10;0.10;;;16.30;99.90;;;;;;4999908;28;20042;-68
2023/07/17 00:16:13;;;;;;;0.45;0.20;;;16.30;99.90;;;;;;4998573;28;20084;-68
2023/07/17 00:18:38;;;;;;;0.30;0.10;;;16.30;99.90;;;;;;4999634;28;20423;-68
2023/07/17 00:21:05;;;;;;;0.75;0.20;;;16.30;99.90;;;;;;5002323;28;20577;-68
2023/07/17 00:23:31;;;;;;;2.35;0.20;;;16.30;99.90;;;;;;5001301;28;20092;-68
2023/07/17 00:25:58;;;;;;;0.30;0.10;;;16.30;99.90;;;;;;5001821;28;20038;-68
2023/07/17 00:28:23;;;;;;;0.10;0.00;;;16.40;99.90;;;;;;4999842;28;20042;-68
2023/07/17 00:30:49;;;;;;;1.00;0.22;;;16.40;99.90;;;;;;5007125;28;20037;-68
2023/07/17 00:33:15;;;;;;;0.00;0.00;;;16.40;99.90;;;;;;5007202;28;20030;-67
2023/07/17 00:35:41;;;;;;;0.13;0.10;;;16.40;99.90;;;;;;5001811;28;20030;-67
2023/07/17 00:38:07;;;;;;;0.00;0.00;;;16.40;99.90;;;;;;5000899;28;20042;-67
2023/07/17 00:40:34;;;;;;;0.00;0.00;;;16.30;99.90;;;;;;5003748;28;20161;-67
2023/07/17 00:43:00;;;;;;;0.00;0.00;;;16.30;99.90;;;;;;5003468;28;20076;-68
2023/07/17 00:45:31;;;;;;;0.10;0.00;;;16.20;99.90;;;;;;5000919;28;20042;-67
2023/07/17 00:47:57;;;;;;;0.10;0.00;;;16.20;99.90;;;;;;5005619;28;20049;-67
2023/07/17 00:50:23;;;;;;;0.20;0.10;;;16.20;99.90;;;;;;5004369;28;20097;-67
2023/07/17 00:52:48;;;;;;;0.55;0.00;;;16.10;99.90;;;;;;5007797;28;20060;-67
2023/07/17 00:55:15;;;;;;;0.00;0.00;;;16.10;99.90;;;;;;4998924;28;20181;-67
2023/07/17 00:57:41;;;;;;;1.38;0.10;;;16.10;99.90;;;;;;5000536;28;20050;-67
2023/07/17 01:00:08;;;;;;;0.38;0.10;;;16.00;99.90;;;;;;5005314;28;20042;-67
2023/07/17 01:02:37;;;;;;;0.00;0.00;;;16.00;99.90;;;;;;5003418;28;20042;-68
2023/07/17 01:05:03;;;;;;;0.20;0.20;;;15.90;99.90;;;;;;5009027;28;20466;-67
2023/07/17 01:07:29;;;;;;;2.42;0.40;;;15.90;99.90;;;;;;5004004;28;20058;-67
2023/07/17 01:09:55;;;;;;;0.00;0.00;;;15.90;99.90;;;;;;5005430;28;20277;-68
2023/07/17 01:12:20;;;;;;;0.05;0.00;;;15.80;99.90;;;;;;5002408;28;20528;-68
2023/07/17 01:14:47;;;;;;;0.17;0.10;;;15.80;99.90;;;;;;5001181;28;20081;-67
2023/07/17 01:17:12;;;;;;;0.40;0.08;;;15.80;99.90;;;;;;5001591;28;20509;-67
2023/07/17 01:19:38;;;;;;;2.65;0.30;;;15.70;99.90;;;;;;5005292;28;20304;-68
2023/07/17 01:22:14;;;;;;;0.05;0.00;;;15.70;99.90;;;;;;5009050;28;20128;-68
2023/07/17 01:24:39;;;;;;;0.00;0.00;;;15.70;99.90;;;;;;5003964;28;20442;-68
2023/07/17 01:27:05;;;;;;;0.00;0.00;;;15.60;99.90;;;;;;5002172;28;20046;-68
2023/07/17 01:29:31;;;;;;;0.32;0.05;;;15.60;99.90;;;;;;5007157;28;20100;-68
2023/07/17 01:31:57;;;;;;;0.20;0.10;;;15.60;99.90;;;;;;5002215;28;20101;-67
2023/07/17 01:34:22;;;;;;;0.00;0.00;;;15.60;99.90;;;;;;5001930;28;20470;-68
2023/07/17 01:36:48;;;;;;;0.40;0.05;;;15.50;99.90;;;;;;5006482;28;20077;-68
2023/07/17 01:39:14;;;;;;;0.10;0.05;;;15.50;99.90;;;;;;5004472;28;20042;-68
2023/07/17 01:41:40;;;;;;;0.20;0.00;;;15.50;99.90;;;;;;4995904;28;20038;-68
2023/07/17 01:44:06;;;;;;;0.10;0.00;;;15.40;99.90;;;;;;5004561;28;20042;-68
2023/07/17 01:46:31;;;;;;;1.00;0.30;;;15.40;99.90;;;;;;5001049;28;20041;-68
2023/07/17 01:48:57;;;;;;;0.00;0.00;;;15.40;99.90;;;;;;5004642;28;20046;-68
2023/07/17 01:51:23;;;;;;;0.22;0.00;;;15.40;99.90;;;;;;5008807;28;20482;-68
2023/07/17 01:53:48;;;;;;;0.35;0.10;;;15.40;99.90;;;;;;5009608;28;20568;-69
2023/07/17 01:56:14;;;;;;;0.00;0.00;;;15.30;99.90;;;;;;5003887;28;20070;-68
2023/07/17 01:58:40;;;;;;;0.85;0.15;;;15.30;99.90;;;;;;5003894;28;20115;-67
2023/07/17 02:01:07;;;;;;;0.08;0.00;;;15.30;99.90;;;;;;5007569;28;20034;-68
2023/07/17 02:03:34;;;;;;;0.00;0.00;;;15.30;99.90;;;;;;5001008;28;20057;-68
2023/07/17 02:06:00;;;;;;;0.00;0.00;;;15.30;99.90;;;;;;5004643;28;20101;-68
2023/07/17 02:08:29;;;;;;;0.00;0.00;;;15.20;99.90;;;;;;5004916;28;20324;-68
2023/07/17 02:10:58;;;;;;;0.40;0.10;;;15.20;99.90;;;;;;5007676;28;20449;-68
2023/07/17 02:13:24;;;;;;;0.00;0.00;;;15.20;99.90;;;;;;5001270;28;20052;-68
2023/07/17 02:15:49;;;;;;;0.00;0.00;;;15.20;99.90;;;;;;5004724;28;20041;-68
2023/07/17 02:18:15;;;;;;;0.00;0.00;;;15.20;99.90;;;;;;5001347;28;20039;-67
2023/07/17 02:20:41;;;;;;;0.13;0.00;;;15.10;99.90;;;;;;5001907;28;20082;-68
2023/07/17 02:23:06;;;;;;;1.15;0.00;;;15.10;99.90;;;;;;5000751;28;20042;-68
2023/07/17 02:25:32;;;;;;;0.47;0.10;;;15.10;99.90;;;;;;5003367;28;20126;-67
2023/07/17 02:27:58;;;;;;;0.00;0.00;;;15.00;99.90;;;;;;5002428;28;20053;-68
2023/07/17 02:30:24;;;;;;;0.38;0.22;;;14.90;99.90;;;;;;4996930;28;20371;-68
2023/07/17 02:32:49;;;;;;;0.00;0.00;;;14.90;99.90;;;;;;5001987;28;20085;-68
2023/07/17 02:35:15;;;;;;;0.20;0.10;;;14.90;99.90;;;;;;5003188;28;20044;-67
2023/07/17 02:37:41;;;;;;;0.00;0.00;;;14.90;99.90;;;;;;5001770;28;20152;-67
2023/07/17 02:40:10;;;;;;;0.00;0.00;;;14.80;99.90;;;;;;5005533;28;20045;-67
2023/07/17 02:42:37;;;;;;;0.00;0.00;;;14.80;99.90;;;;;;5002404;28;20046;-67
2023/07/17 02:45:04;;;;;;;0.20;0.10;;;14.80;99.90;;;;;;5004786;28;20030;-67
2023/07/17 02:47:29;;;;;;;0.00;0.00;;;14.80;99.90;;;;;;5003771;28;20050;-67
2023/07/17 02:49:55;;;;;;;0.45;0.00;;;14.70;99.90;;;;;;5000582;28;20045;-67
2023/07/17 02:52:21;;;;;;;0.10;0.00;;;14.70;99.90;;;;;;4999659;28;20562;-67
2023/07/17 02:54:47;;;;;;;0.20;0.00;;;14.70;99.90;;;;;;5002834;28;20141;-67
2023/07/17 02:57:14;;;;;;;0.08;0.00;;;14.60;99.90;;;;;;4999966;28;20370;-67
2023/07/17 02:59:40;;;;;;;0.17;0.00;;;14.60;99.90;;;;;;5020457;28;20065;-67
2023/07/17 03:02:06;;;;;;;0.32;0.15;;;14.60;99.90;;;;;;5002999;28;20040;-67
2023/07/17 03:04:32;;;;;;;0.17;0.00;;;14.60;99.90;;;;;;5002806;28;20064;-67
2023/07/17 03:06:57;;;;;;;0.03;0.00;;;14.50;99.90;;;;;;5000845;28;20061;-67
2023/07/17 03:09:23;;;;;;;0.10;0.00;;;14.50;99.90;;;;;;4995128;28;20084;-67
2023/07/17 03:11:49;;;;;;;0.00;0.00;;;14.50;99.90;;;;;;5002145;28;20038;-67
2023/07/17 03:14:15;;;;;;;0.20;0.00;;;14.40;99.90;;;;;;5001079;28;20096;-67
2023/07/17 03:16:41;;;;;;;0.08;0.00;;;14.40;99.90;;;;;;5000300;28;20137;-67
2023/07/17 03:19:07;;;;;;;0.00;0.00;;;14.40;99.90;;;;;;4994015;28;20176;-67
2023/07/17 03:21:32;;;;;;;0.63;0.30;;;14.40;99.90;;;;;;5006638;28;20113;-67
2023/07/17 03:23:58;;;;;;;0.10;0.10;;;14.40;99.90;;;;;;4999886;28;20046;-66
2023/07/17 03:26:24;;;;;;;0.00;0.00;;;14.40;99.90;;;;;;5000836;28;20042;-67
2023/07/17 03:28:49;;;;;;;0.20;0.00;;;14.30;99.90;;;;;;4997713;28;20057;-67
2023/07/17 03:31:15;;;;;;;0.08;0.00;;;14.30;99.90;;;;;;4996933;28;20046;-67
2023/07/17 03:33:41;;;;;;;0.75;0.00;;;14.40;99.90;;;;;;5001729;28;20473;-67
2023/07/17 03:36:07;;;;;;;0.00;0.00;;;14.30;99.90;;;;;;5005340;28;20123;-67
2023/07/17 03:38:32;;;;;;;0.00;0.00;;;14.30;99.90;;;;;;5001221;28;20084;-67
2023/07/17 03:40:58;;;;;;;0.45;0.10;;;14.30;99.90;;;;;;5000811;28;20038;-67
2023/07/17 03:43:24;;;;;;;0.57;0.20;;;14.30;99.90;;;;;;4983882;28;20129;-67
2023/07/17 03:45:51;;;;;;;0.00;0.00;;;14.30;99.90;;;;;;4997910;28;20500;-67
2023/07/17 03:48:17;;;;;;;0.10;0.00;;;14.30;99.90;;;;;;5002227;28;20038;-67
2023/07/17 03:50:42;;;;;;;0.08;0.00;;;14.30;99.90;;;;;;5003683;28;20406;-67
2023/07/17 03:53:08;;;;;;;0.03;0.03;;;14.30;99.90;;;;;;5003297;28;20049;-67
2023/07/17 03:55:34;;;;;;;0.20;0.08;;;14.30;99.90;;;;;;4997857;28;20038;-67
2023/07/17 03:58:00;;;;;;;0.47;0.10;;;14.30;99.90;;;;;;5003915;28;20125;-67
2023/07/17 04:00:25;;;;;;;0.50;0.20;;;14.30;99.90;;;;;;5001454;28;20465;-67
2023/07/17 04:02:51;;;;;;;0.05;0.03;;;14.20;99.90;;;;;;5004059;28;20332;-67
2023/07/17 04:05:17;;;;;;;0.50;0.10;;;14.30;99.90;;;;;;5004999;28;20037;-67
2023/07/17 04:07:42;;;;;;;0.10;0.05;;;14.20;99.90;;;;;;5005198;28;20061;-67
2023/07/17 04:10:09;;;;;;;0.13;0.03;;;14.20;99.90;;;;;;5002422;28;20096;-67
2023/07/17 04:12:34;;;;;;;0.00;0.00;;;14.20;99.90;;;;;;5002863;28;20050;-67
2023/07/17 04:15:00;;;;;;;0.00;0.00;;;14.20;99.90;;;;;;5002403;28;20042;-67
2023/07/17 04:17:26;;;;;;;0.00;0.00;;;14.20;99.90;;;;;;4979857;28;20050;-67
2023/07/17 04:19:51;;;;;;;1.95;0.20;;;14.20;99.90;;;;;;5001037;28;20041;-66
2023/07/17 04:22:17;;;;;;;0.10;0.00;;;14.30;99.90;;;;;;5002465;28;20042;-67
2023/07/17 04:24:43;;;;;;;0.00;0.00;;;14.20;99.90;;;;;;5000573;28;20423;-66
2023/07/17 04:27:08;;;;;;;0.25;0.10;;;14.30;99.90;;;;;;4999772;28;20042;-67
2023/07/17 04:29:34;;;;;;;0.28;0.22;;;14.30;99.90;;;;;;5002076;28;20042;-68
2023/07/17 04:32:00;;;;;;;0.00;0.00;;;14.40;99.90;;;;;;4998575;28;20049;-67
2023/07/17 04:34:26;;;;;;;0.93;0.25;;;14.40;99.90;;;;;;4994540;28;20038;-68
2023/07/17 04:36:51;;;;;;;0.35;0.03;;;14.50;99.90;;;;;;4997010;28;20111;-67
2023/07/17 04:39:17;;;;;;;0.00;0.00;;;14.60;99.90;;;;;;5001512;28;20030;-68
2023/07/17 04:41:43;;;;;;;0.57;0.10;;;14.70;99.90;;;;;;4997437;28;20046;-68
2023/07/17 04:44:09;;;;;;;0.45;0.10;;;14.80;99.90;;;;;;5004046;28;20490;-67
2023/07/17 04:46:35;;;;;;;0.15;0.10;;;14.80;99.90;;;;;;4996969;28;20038;-68
2023/07/17 04:49:02;;;;;;;0.00;0.00;;;14.90;99.90;;;;;;5002181;28;20127;-68
2023/07/17 04:51:28;;;;;;;0.08;0.00;;;15.00;99.90;;;;;;5000433;28;20043;-68
2023/07/17 04:53:54;;;;;;;0.10;0.00;;;15.10;99.90;;;;;;4998903;28;20048;-67
2023/07/17 04:56:19;;;;;;;0.00;0.00;;;15.20;99.90;;;;;;4997330;28;20117;-67
2023/07/17 04:58:45;;;;;;;0.10;0.00;;;15.30;99.90;;;;;;4998916;28;20038;-68
2023/07/17 05:01:11;;;;;;;0.10;0.08;;;15.40;99.90;;;;;;5002200;28;20030;-68
2023/07/17 05:03:37;;;;;;;0.00;0.00;;;15.70;99.90;;;;;;4998526;28;20505;-68
2023/07/17 05:06:03;;;;;;;0.35;0.03;;;16.20;99.90;;;;;;5001974;28;20125;-68
2023/07/17 05:08:29;;;;;;;0.30;0.10;;;16.60;99.90;;;;;;4999601;28;20062;-68
2023/07/17 05:10:59;;;;;;;0.20;0.15;;;16.70;99.90;;;;;;5001183;28;20054;-68
2023/07/17 05:13:26;;;;;;;0.40;0.10;;;16.70;99.90;;;;;;4994374;28;20042;-68
2023/07/17 05:15:52;;;;;;;0.10;0.03;;;17.00;99.90;;;;;;5004616;28;20046;-68
2023/07/17 05:18:18;;;;;;;0.60;0.15;;;17.30;99.90;;;;;;5006450;28;20101;-68
2023/07/17 05:20:48;;;;;;;0.25;0.13;;;17.60;99.90;;;;;;5005994;28;20034;-68
2023/07/17 05:23:14;;;;;;;0.38;0.20;;;17.50;99.90;;;;;;5005172;28;20065;-68
2023/07/17 05:25:51;;;;;;;0.52;0.20;;;17.50;99.90;;;;;;5000789;28;20102;-67
2023/07/17 05:28:17;;;;;;;0.10;0.00;;;17.80;99.90;;;;;;5009866;28;20054;-68
2023/07/17 05:30:43;;;;;;;3.40;0.10;;;18.00;99.90;;;;;;5003157;28;20101;-68
2023/07/17 05:33:08;;;;;;;0.13;0.10;;;17.90;99.90;;;;;;5002195;28;20049;-68
2023/07/17 05:35:34;;;;;;;2.70;0.20;;;17.80;99.90;;;;;;5000474;28;20066;-68
2023/07/17 05:38:00;;;;;;;0.35;0.20;;;17.70;99.90;;;;;;5003249;28;20104;-67
2023/07/17 05:40:26;;;;;;;0.00;0.00;;;17.70;99.90;;;;;;5005071;28;20061;-68
2023/07/17 05:42:52;;;;;;;0.30;0.17;;;17.70;99.90;;;;;;5001713;28;20053;-67
2023/07/17 05:45:17;;;;;;;0.28;0.10;;;17.70;99.90;;;;;;5009945;28;20113;-68
2023/07/17 05:47:43;;;;;;;0.00;0.00;;;17.60;99.90;;;;;;5010700;28;20030;-67
2023/07/17 05:50:10;;;;;;;0.10;0.00;;;17.60;99.90;;;;;;5007460;28;20042;-67
2023/07/17 05:52:36;;;;;;;0.60;0.50;;;17.50;99.90;;;;;;5009652;28;20047;-68
2023/07/17 05:55:03;;;;;;;0.00;0.00;;;17.40;99.90;;;;;;5008619;28;20041;-67
2023/07/17 05:57:31;;;;;;;1.65;0.20;;;17.40;99.90;;;;;;5005992;28;20112;-67
2023/07/17 05:59:57;;;;;;;0.60;0.32;;;17.40;99.90;;;;;;5008191;28;20043;-67
2023/07/17 06:02:23;;;;;;;0.03;0.00;;;17.40;99.90;;;;;;5007636;28;20486;-67
2023/07/17 06:04:48;;;;;;;0.10;0.10;;;17.40;99.90;;;;;;5008175;28;20073;-67
2023/07/17 06:07:14;;;;;;;1.15;0.30;;;17.50;99.90;;;;;;5005168;28;20064;-67
2023/07/17 06:09:40;;;;;;;0.22;0.10;;;17.50;99.90;;;;;;5005165;28;20094;-67
2023/07/17 06:12:06;;;;;;;0.20;0.10;;;17.60;99.90;;;;;;5004701;28;20461;-68
2023/07/17 06:14:32;;;;;;;1.13;0.40;;;17.70;99.90;;;;;;5006454;28;20676;-68
2023/07/17 06:16:58;;;;;;;1.75;0.20;;;17.70;99.90;;;;;;5005753;28;20116;-67
2023/07/17 06:19:24;;;;;;;0.08;0.00;;;17.70;99.90;;;;;;4998007;28;20372;-66
2023/07/17 06:21:50;;;;;;;0.38;0.10;;;17.90;99.90;;;;;;4998358;28;20101;-66
2023/07/17 06:24:15;;;;;;;1.23;0.28;;;18.10;99.90;;;;;;5003997;28;20031;-67
2023/07/17 06:27:02;;;;;;;0.45;0.28;;;18.20;99.90;;;;;;5000540;28;20126;-67
2023/07/17 06:29:28;;;;;;;1.02;0.38;;;18.20;99.90;;;;;;4998260;28;20112;-66
2023/07/17 06:31:54;;;;;;;0.38;0.13;;;18.10;99.90;;;;;;4998670;28;20379;-67
2023/07/17 06:34:20;;;;;;;1.45;0.20;;;18.00;99.90;;;;;;5004645;28;20041;-66
2023/07/17 06:36:46;;;;;;;0.13;0.13;;;18.00;99.90;;;;;;5002832;28;20444;-67
2023/07/17 06:39:13;;;;;;;0.30;0.20;;;17.80;99.90;;;;;;5000032;28;20125;-66
2023/07/17 06:41:39;;;;;;;1.17;0.20;;;17.70;99.90;;;;;;5002719;28;20049;-66
2023/07/17 06:44:04;;;;;;;2.92;0.30;;;17.60;99.90;;;;;;5000007;28;20048;-67
2023/07/17 06:46:30;;;;;;;0.10;0.10;;;17.60;99.90;;;;;;4995590;28;20034;-67
2023/07/17 06:48:56;;;;;;;0.63;0.10;;;17.70;99.90;;;;;;5004521;28;20046;-66
2023/07/17 06:51:22;;;;;;;0.63;0.38;;;17.80;99.90;;;;;;5002921;28;20052;-67
2023/07/17 06:53:48;;;;;;;0.43;0.05;;;18.00;99.90;;;;;;5005732;28;20049;-67
2023/07/17 06:56:14;;;;;;;0.20;0.10;;;18.10;99.90;;;;;;4998694;28;20401;-67
2023/07/17 06:58:40;;;;;;;1.20;0.13;;;18.20;99.90;;;;;;4999829;28;20030;-66
2023/07/17 07:01:06;;;;;;;0.28;0.20;;;18.40;99.90;;;;;;5000384;28;20402;-67
2023/07/17 07:03:31;;;;;;;1.42;0.38;;;18.60;99.90;;;;;;5004519;28;20160;-66
2023/07/17 07:06:01;;;;;;;0.25;0.00;;;18.70;99.90;;;;;;4997306;28;20050;-67
2023/07/17 07:08:29;;;;;;;0.22;0.10;;;18.80;99.90;;;;;;5002952;28;20126;-67
2023/07/17 07:10:57;;;;;;;1.65;0.47;;;18.80;99.90;;;;;;5001707;28;20045;-67
2023/07/17 07:13:24;;;;;;;0.45;0.20;;;18.70;99.90;;;;;;5002093;28;20050;-67
2023/07/17 07:15:50;;;;;;;0.55;0.15;;;18.70;99.90;;;;;;4999912;28;20193;-67
2023/07/17 07:18:17;;;;;;;0.30;0.10;;;18.60;99.90;;;;;;5004303;28;20042;-68
2023/07/17 07:20:44;;;;;;;0.30;0.15;;;18.70;99.90;;;;;;5003856;28;20038;-68
2023/07/17 07:23:09;;;;;;;2.03;0.32;;;18.80;99.90;;;;;;4997063;28;20576;-68
2023/07/17 07:25:35;;;;;;;0.38;0.05;;;18.90;99.90;;;;;;4993166;28;20073;-68
2023/07/17 07:28:01;;;;;;;0.63;0.28;;;19.10;99.90;;;;;;5001261;28;20046;-69
2023/07/17 07:30:27;;;;;;;0.68;0.20;;;19.30;99.90;;;;;;5002628;28;20042;-68
2023/07/17 07:32:53;;;;;;;0.45;0.03;;;19.40;99.90;;;;;;5001538;28;20046;-68
2023/07/17 07:35:19;;;;;;;0.75;0.38;;;19.40;99.90;;;;;;4996906;28;20471;-69
2023/07/17 07:37:45;;;;;;;0.57;0.13;;;19.50;99.90;;;;;;4999575;28;20505;-68
2023/07/17 07:40:12;;;;;;;0.75;0.38;;;19.70;99.90;;;;;;5001112;28;20041;-68
2023/07/17 07:42:39;;;;;;;2.67;0.95;;;19.90;99.90;;;;;;4994853;28;20041;-68
2023/07/17 07:45:05;;;;;;;0.32;0.17;;;20.00;99.90;;;;;;5004867;28;20042;-69
2023/07/17 07:47:32;;;;;;;0.10;0.05;;;20.10;99.90;;;;;;5006366;28;20133;-68
2023/07/17 07:49:58;;;;;;;0.43;0.10;;;20.30;99.90;;;;;;5000339;28;20042;-68
2023/07/17 07:52:24;;;;;;;0.77;0.20;;;20.50;99.90;;;;;;5003072;28;20045;-69
2023/07/17 07:54:49;;;;;;;0.28;0.10;;;20.50;99.90;;;;;;5006705;28;20097;-69
2023/07/17 07:57:15;;;;;;;0.88;0.28;;;20.50;99.90;;;;;;5004173;28;20047;-69
2023/07/17 07:59:41;;;;;;;1.27;0.40;;;20.40;99.90;;;;;;5001344;28;20421;-69
2023/07/17 08:02:07;;;;;;;0.00;0.00;;;20.30;99.90;;;;;;5001613;28;20030;-69
2023/07/17 08:04:32;;;;;;;0.15;0.10;;;20.20;99.90;;;;;;4997310;28;20042;-69
2023/07/17 08:06:58;;;;;;;1.33;0.20;;;20.20;99.90;;;;;;5001075;28;20081;-69
2023/07/17 08:09:25;;;;;;;0.30;0.00;;;20.20;99.90;;;;;;4999489;28;20128;-69
2023/07/17 08:11:52;;;;;;;0.85;0.30;;;20.20;99.90;;;;;;5006059;28;20043;-69
2023/07/17 08:14:20;;;;;;;0.82;0.30;;;20.20;99.90;;;;;;5006531;28;20050;-69
2023/07/17 08:16:49;;;;;;;0.32;0.20;;;20.10;99.90;;;;;;5005425;28;20040;-69
2023/07/17 08:19:18;;;;;;;1.05;0.45;;;20.00;99.90;;;;;;4999023;28;20034;-68
2023/07/17 08:21:44;;;;;;;1.65;0.20;;;19.90;99.90;;;;;;5000510;28;20049;-69
2023/07/17 08:24:10;;;;;;;1.15;0.17;;;19.80;99.90;;;;;;4991979;28;20498;-69
2023/07/17 08:26:38;;;;;;;0.40;0.20;;;19.70;99.90;;;;;;5002852;28;20042;-68
2023/07/17 08:29:07;;;;;;;0.75;0.10;;;19.70;99.90;;;;;;5001712;28;20196;-69
2023/07/17 08:31:34;;;;;;;1.20;0.75;;;19.80;99.90;;;;;;4998395;28;20049;-68
2023/07/17 08:34:03;;;;;;;0.65;0.20;;;19.90;99.90;;;;;;5000313;28;20127;-68
2023/07/17 08:36:30;;;;;;;0.25;0.20;;;19.80;99.90;;;;;;5002618;28;20034;-69
2023/07/17 08:38:55;;;;;;;0.38;0.15;;;19.80;99.90;;;;;;5001375;28;20081;-69
2023/07/17 08:41:22;;;;;;;0.65;0.30;;;19.60;99.90;;;;;;5000724;28;20073;-69
2023/07/17 08:43:51;;;;;;;0.30;0.20;;;19.50;99.90;;;;;;4993514;28;20038;-69
2023/07/17 08:46:17;;;;;;;0.40;0.22;;;19.30;99.90;;;;;;5000967;28;20034;-69
2023/07/17 08:48:43;;;;;;;2.22;0.60;;;19.00;99.90;;;;;;5003014;28;20089;-68
2023/07/17 08:51:13;;;;;;;0.65;0.10;;;18.90;99.90;;;;;;4995799;28;20046;-69
2023/07/17 08:53:44;;;;;;;1.80;0.20;;;18.70;99.90;;;;;;5009200;28;20561;-69
2023/07/17 08:56:11;;;;;;;0.10;0.10;;;18.70;99.90;;;;;;5002424;28;20407;-69
2023/07/17 08:58:40;;;;;;;2.35;0.70;;;18.70;99.90;;;;;;5008697;28;20491;-68
2023/07/17 09:01:07;;;;;;;0.20;0.10;;;18.80;99.90;;;;;;4995053;28;20113;-69
2023/07/17 09:03:36;;;;;;;2.38;0.43;;;18.90;99.90;;;;;;5005847;28;20054;-69
2023/07/17 09:06:03;;;;;;;0.85;0.30;;;19.00;99.90;;;;;;5004658;28;20122;-69
2023/07/17 09:08:29;;;;;;;0.65;0.30;;;19.30;99.90;;;;;;5001853;28;20085;-69
2023/07/17 09:11:08;;;;;;;0.38;0.20;;;19.70;99.90;;;;;;4996172;28;20065;-69
2023/07/17 09:13:44;;;;;;;0.75;0.40;;;20.20;99.90;;;;;;5004254;28;20050;-70
2023/07/17 09:16:20;;;;;;;0.40;0.20;;;20.70;99.90;;;;;;5004827;28;20041;-70
2023/07/17 09:18:47;;;;;;;0.77;0.13;;;21.20;99.90;;;;;;5001985;28;20054;-70
2023/07/17 09:21:14;;;;;;;0.43;0.17;;;21.50;99.90;;;;;;5004842;28;20045;-69
2023/07/17 09:23:46;;;;;;;0.20;0.10;;;21.80;99.90;;;;;;5000812;28;20058;-70
2023/07/17 09:26:20;;;;;;;0.98;0.20;;;21.90;99.90;;;;;;5004271;28;20510;-69
2023/07/17 09:28:51;;;;;;;0.00;0.00;;;21.80;99.90;;;;;;5003002;28;20499;-69
2023/07/17 09:31:31;;;;;;;0.90;0.30;;;21.50;99.90;;;;;;4998350;28;20154;-69
2023/07/17 09:34:06;;;;;;;0.77;0.10;;;21.50;99.90;;;;;;5006516;28;20041;-69
2023/07/17 09:36:31;;;;;;;0.38;0.20;;;21.30;99.90;;;;;;5003942;28;20075;-69
2023/07/17 09:38:58;;;;;;;1.02;0.17;;;21.40;99.90;;;;;;4998421;28;20461;-69
2023/07/17 09:41:25;;;;;;;0.47;0.13;;;21.50;99.90;;;;;;5002253;28;20045;-69
2023/07/17 09:44:05;;;;;;;0.55;0.30;;;21.30;99.90;;;;;;5005169;28;20034;-69
2023/07/17 09:46:36;;;;;;;0.35;0.20;;;21.00;99.90;;;;;;5001876;28;20038;-69
2023/07/17 09:49:03;;;;;;;0.13;0.10;;;21.00;99.90;;;;;;5000285;28;20109;-69
2023/07/17 09:51:30;;;;;;;0.20;0.10;;;21.30;99.90;;;;;;5002953;28;20038;-69
2023/07/17 09:53:57;;;;;;;0.50;0.13;;;21.60;99.90;;;;;;5002917;28;20518;-69
2023/07/17 09:56:28;;;;;;;0.40;0.13;;;22.00;99.90;;;;;;5005438;28;20129;-69
2023/07/17 09:59:04;;;;;;;0.00;0.00;;;22.30;99.90;;;;;;4998133;28;20038;-70
2023/07/17 10:01:31;;;;;;;0.40;0.10;;;22.40;99.90;;;;;;5006281;28;20100;-69
2023/07/17 10:04:02;;;;;;;0.68;0.30;;;22.50;99.90;;;;;;5004332;28;20045;-69
2023/07/17 10:06:28;;;;;;;0.15;0.10;;;22.40;99.90;;;;;;5001650;28;20754;-69
2023/07/17 10:08:54;;;;;;;0.43;0.20;;;22.60;99.90;;;;;;4998880;28;20163;-69
2023/07/17 10:11:21;;;;;;;0.10;0.10;;;22.80;99.90;;;;;;5006563;28;20060;-69
2023/07/17 10:13:48;;;;;;;0.85;0.10;;;23.00;99.90;;;;;;4999865;28;20547;-69
2023/07/17 10:16:18;;;;;;;0.20;0.00;;;23.30;99.90;;;;;;5001755;28;20081;-69
2023/07/17 10:18:48;;;;;;;2.10;0.10;;;23.50;98.70;;;;;;5000303;28;20139;-70
2023/07/17 10:21:18;;;;;;;1.55;0.20;;;23.50;99.90;;;;;;5004703;28;20092;-69
2023/07/17 10:23:45;;;;;;;0.30;0.10;;;23.60;99.40;;;;;;5008313;28;20053;-69
2023/07/17 10:26:12;;;;;;;0.90;0.15;;;23.50;97.10;;;;;;5000351;28;20122;-69
2023/07/17 10:28:39;;;;;;;0.32;0.22;;;23.40;98.50;;;;;;4999017;28;20065;-69
2023/07/17 10:31:21;;;;;;;0.08;0.05;;;23.10;93.50;;;;;;5001448;28;20042;-69
2023/07/17 10:33:49;;;;;;;0.20;0.10;;;22.80;94.00;;;;;;5003004;28;20048;-70
2023/07/17 10:36:15;;;;;;;0.45;0.03;;;22.80;98.70;;;;;;4999143;28;20121;-70
2023/07/17 10:38:42;;;;;;;0.05;0.00;;;22.90;99.90;;;;;;4997433;28;20049;-70
2023/07/17 10:41:14;;;;;;;0.08;0.08;;;22.80;99.90;;;;;;5000058;28;20089;-70
2023/07/17 10:44:03;;;;;;;1.63;0.10;;;22.60;96.70;;;;;;4997713;28;20130;-70
2023/07/17 10:46:33;;;;;;;0.10;0.10;;;22.50;97.40;;;;;;5009556;28;20040;-70
2023/07/17 10:49:10;;;;;;;0.00;0.00;;;22.50;98.30;;;;;;5004750;28;20057;-70
2023/07/17 10:51:37;;;;;;;0.13;0.10;;;22.40;98.50;;;;;;4983222;28;20053;-70
2023/07/17 10:54:03;;;;;;;0.10;0.05;;;22.60;99.90;;;;;;5003995;28;20048;-70
2023/07/17 10:56:32;;;;;;;0.63;0.10;;;23.00;99.90;;;;;;4999393;28;20513;-70
2023/07/17 10:58:58;;;;;;;0.10;0.10;;;23.50;99.90;;;;;;5004490;28;20049;-70
2023/07/17 11:01:24;;;;;;;0.17;0.05;;;23.80;99.90;;;;;;4997404;28;20498;-70
2023/07/17 11:03:53;;;;;;;0.10;0.10;;;23.70;98.50;;;;;;5004876;28;20037;-70
2023/07/17 11:06:19;;;;;;;0.20;0.10;;;23.50;98.20;;;;;;4995239;28;20424;-70
2023/07/17 11:08:49;;;;;;;0.30;0.20;;;23.20;97.90;;;;;;5004286;28;20152;-70
2023/07/17 11:11:15;;;;;;;0.10;0.10;;;23.00;99.10;;;;;;5001059;28;20070;-70
2023/07/17 11:13:48;;;;;;;0.32;0.10;;;23.20;99.40;;;;;;4998260;28;20042;-70
2023/07/17 11:16:14;;;;;;;0.17;0.10;;;23.10;96.10;;;;;;5007889;28;20030;-70
2023/07/17 11:18:55;;;;;;;0.35;0.10;;;22.90;97.10;;;;;;5006348;28;21785;-70
2023/07/17 11:21:26;;;;;;;0.40;0.30;;;22.90;99.10;;;;;;4997274;28;20037;-70
2023/07/17 11:23:56;;;;;;;0.20;0.10;;;23.30;99.90;;;;;;5008266;28;20042;-70
2023/07/17 11:26:27;;;;;;;0.17;0.00;;;23.90;99.90;;;;;;4992799;28;20051;-70
2023/07/17 11:28:55;;;;;;;0.05;0.03;;;24.50;98.20;;;;;;5005587;28;20052;-71
2023/07/17 11:31:27;;;;;;;0.40;0.30;;;25.10;95.30;;;;;;5006579;28;20037;-71
2023/07/17 11:34:07;;;;;;;0.75;0.10;;;25.60;98.60;;;;;;4997701;28;20506;-70
2023/07/17 11:36:43;;;;;;;0.30;0.10;;;25.80;92.50;;;;;;4999790;28;20050;-70
2023/07/17 11:39:10;;;;;;;0.15;0.00;;;25.70;87.00;;;;;;5003433;28;20042;-70
2023/07/17 11:41:53;;;;;;;1.88;0.10;;;25.80;87.80;;;;;;5005020;28;20034;-70
2023/07/17 11:44:25;;;;;;;0.10;0.05;;;25.70;91.00;;;;;;4998696;28;20042;-71
2023/07/17 11:46:56;;;;;;;0.40;0.35;;;25.70;95.00;;;;;;5000086;28;20499;-70
2023/07/17 11:49:25;;;;;;;0.20;0.00;;;25.80;94.00;;;;;;5004523;28;20042;-71
2023/07/17 11:51:51;;;;;;;0.20;0.10;;;25.70;93.10;;;;;;4999319;28;20049;-70
2023/07/17 11:54:17;;;;;;;0.52;0.00;;;25.80;92.80;;;;;;4996823;28;20380;-70
2023/07/17 11:56:44;;;;;;;0.38;0.10;;;25.50;84.40;;;;;;5000311;28;20046;-70
2023/07/17 11:59:20;;;;;;;0.55;0.20;;;25.00;82.10;;;;;;5004885;28;20033;-70
2023/07/17 12:01:47;;;;;;;0.00;0.00;;;24.60;84.60;;;;;;4996335;28;20049;-70
2023/07/17 12:04:38;;;;;;;0.00;0.00;;;24.40;91.80;;;;;;5000418;28;20044;-70
2023/07/17 12:07:05;;;;;;;0.15;0.10;;;24.50;85.60;;;;;;5001496;28;20054;-71
2023/07/17 12:09:30;;;;;;;0.17;0.10;;;24.50;88.40;;;;;;5001919;28;20498;-70
2023/07/17 12:11:57;;;;;;;0.20;0.00;;;24.30;84.90;;;;;;4998081;28;20045;-70
2023/07/17 12:14:22;;;;;;;0.00;0.00;;;23.70;84.70;;;;;;5001573;28;20044;-70
2023/07/17 12:16:48;;;;;;;0.10;0.00;;;23.20;89.20;;;;;;5001126;28;20116;-70
2023/07/17 12:19:14;;;;;;;0.30;0.20;;;22.90;89.40;;;;;;5000403;28;20044;-70
2023/07/17 12:21:40;;;;;;;0.10;0.00;;;23.00;92.30;;;;;;5002532;28;20128;-70
2023/07/17 12:24:06;;;;;;;0.00;0.00;;;23.20;94.10;;;;;;5000604;28;20113;-70
2023/07/17 12:26:32;;;;;;;0.38;0.00;;;23.20;92.50;;;;;;5004017;28;20046;-70
2023/07/17 12:28:57;;;;;;;0.30;0.00;;;22.90;93.50;;;;;;4999813;28;20105;-70
2023/07/17 12:31:24;;;;;;;0.65;0.20;;;22.40;98.30;;;;;;4997545;28;20121;-69
2023/07/17 12:33:50;;;;;;;0.43;0.08;;;22.00;99.30;;;;;;4997972;28;20108;-69
2023/07/17 12:36:15;;;;;;;0.10;0.08;;;21.60;99.10;;;;;;5001370;28;20047;-69
2023/07/17 12:38:41;;;;;;;0.00;0.00;;;21.10;99.10;;;;;;4997733;28;20129;-69
2023/07/17 12:41:07;;;;;;;0.70;0.10;;;20.90;99.90;;;;;;4994652;28;20042;-69
2023/07/17 12:43:32;;;;;;;0.20;0.10;;;20.70;99.90;;;;;;5001655;28;20042;-69
2023/07/17 12:45:58;;;;;;;0.08;0.00;;;20.60;99.90;;;;;;5002786;28;20141;-69
2023/07/17 12:48:24;;;;;;;2.53;0.28;;;20.60;99.90;;;;;;4997479;28;20120;-69